Time;durP1;ratioP1;P1;durP2;ratioP2;P2;SDS_P1;SDS_P2;PMS_P1;PMS_P2;Temp;Humidity;BMP_temperature;BMP_pressure;BME280_temperature;BME280_humidity;BME280_pressure;Samples;Min_cycle;Max_cycle;Signal;HPM_P1;HPM_P2
2022/04/16 00:01:49;;;;;;;27.20;14.27;;;9.40;99.90;;;;;;5112681;28;20039;-64
2022/04/16 00:04:15;;;;;;;29.42;15.80;;;9.40;99.90;;;;;;5112295;28;20027;-63
2022/04/16 00:06:41;;;;;;;33.70;14.98;;;9.30;99.90;;;;;;5112859;28;20031;-64
2022/04/16 00:09:06;;;;;;;31.63;15.88;;;9.30;99.90;;;;;;5111852;28;20032;-64
2022/04/16 00:11:32;;;;;;;31.20;15.68;;;9.20;99.90;;;;;;5112727;28;20027;-63
2022/04/16 00:13:58;;;;;;;33.90;16.17;;;9.20;99.90;;;;;;5113002;28;20537;-63
2022/04/16 00:16:25;;;;;;;30.48;14.73;;;9.20;99.90;;;;;;5111476;28;20526;-63
2022/04/16 00:18:51;;;;;;;33.45;16.55;;;9.10;99.90;;;;;;5107743;28;20055;-64
2022/04/16 00:21:17;;;;;;;35.90;16.30;;;9.10;99.90;;;;;;5102082;28;20075;-62
2022/04/16 00:23:43;;;;;;;32.63;16.83;;;9.10;99.90;;;;;;5112401;28;20016;-63
2022/04/16 00:26:13;;;;;;;36.35;17.20;;;9.10;99.90;;;;;;5111074;28;20020;-64
2022/04/16 00:28:39;;;;;;;39.80;18.23;;;9.10;99.90;;;;;;5112355;28;20023;-63
2022/04/16 00:31:05;;;;;;;40.25;17.55;;;9.10;99.90;;;;;;5109415;28;20024;-64
2022/04/16 00:33:33;;;;;;;34.92;17.48;;;9.10;99.90;;;;;;5097906;28;20037;-63
2022/04/16 00:35:58;;;;;;;;;;;9.20;99.90;;;;;;5110726;28;20456;-64
2022/04/16 00:38:24;;;;;;;39.72;17.38;;;9.20;99.90;;;;;;5111925;28;19914;-63
2022/04/16 00:40:49;;;;;;;31.73;15.50;;;9.20;99.90;;;;;;5111651;28;20032;-64
2022/04/16 00:43:28;;;;;;;37.45;16.27;;;9.20;99.90;;;;;;5111315;28;20051;-64
2022/04/16 00:45:55;;;;;;;43.10;18.48;;;9.20;99.90;;;;;;5098642;28;20066;-63
2022/04/16 00:48:22;;;;;;;36.85;18.05;;;9.10;99.90;;;;;;5110587;28;20028;-64
2022/04/16 00:50:52;;;;;;;42.78;19.40;;;9.00;99.90;;;;;;5112001;28;20035;-65
2022/04/16 00:53:18;;;;;;;40.40;18.80;;;9.00;99.90;;;;;;5111868;28;20041;-64
2022/04/16 00:55:44;;;;;;;44.75;18.40;;;8.90;99.90;;;;;;5111182;28;20514;-63
2022/04/16 00:58:10;;;;;;;33.25;17.13;;;9.00;99.90;;;;;;5111227;28;20023;-63
2022/04/16 01:00:36;;;;;;;43.97;19.20;;;8.80;99.90;;;;;;5111404;28;20372;-63
2022/04/16 01:03:02;;;;;;;45.35;18.00;;;8.80;99.90;;;;;;5111491;28;20039;-64
2022/04/16 01:05:28;;;;;;;45.08;19.95;;;8.70;99.90;;;;;;5111846;28;20035;-63
2022/04/16 01:07:59;;;;;;;51.80;19.50;;;8.70;99.90;;;;;;5103542;28;20024;-63
2022/04/16 01:10:27;;;;;;;42.40;18.02;;;8.60;99.90;;;;;;5111822;28;20027;-64
2022/04/16 01:12:58;;;;;;;46.35;17.83;;;8.60;99.90;;;;;;5111306;28;20039;-64
2022/04/16 01:15:25;;;;;;;44.42;19.08;;;8.50;99.90;;;;;;5109673;28;20395;-63
2022/04/16 01:17:52;;;;;;;43.93;19.53;;;8.50;99.90;;;;;;5111362;28;20511;-64
2022/04/16 01:20:18;;;;;;;39.27;18.23;;;8.50;99.90;;;;;;5110818;28;20089;-64
2022/04/16 01:22:45;;;;;;;48.30;19.35;;;8.40;99.90;;;;;;5111030;28;20035;-64
2022/04/16 01:25:11;;;;;;;51.13;20.85;;;8.40;99.90;;;;;;5110727;28;20055;-63
2022/04/16 01:27:43;;;;;;;51.15;22.00;;;8.40;99.90;;;;;;5110596;28;20502;-64
2022/04/16 01:30:18;;;;;;;68.30;25.73;;;8.30;99.90;;;;;;5111257;28;20020;-64
2022/04/16 01:32:44;;;;;;;65.90;24.15;;;8.30;99.90;;;;;;5111264;28;20051;-63
2022/04/16 01:35:10;;;;;;;65.15;24.10;;;8.30;99.90;;;;;;5111119;28;20059;-63
2022/04/16 01:37:37;;;;;;;63.55;24.73;;;8.30;99.90;;;;;;5104436;28;20108;-64
2022/04/16 01:40:09;;;;;;;62.63;24.63;;;8.30;99.90;;;;;;5111306;28;20088;-63
2022/04/16 01:42:35;;;;;;;62.20;23.40;;;8.30;99.90;;;;;;5111199;28;20114;-63
2022/04/16 01:45:05;;;;;;;68.60;26.95;;;8.30;99.90;;;;;;5111527;28;20058;-64
2022/04/16 01:47:31;;;;;;;81.80;28.25;;;8.30;99.90;;;;;;5111166;28;20028;-63
2022/04/16 01:49:57;;;;;;;70.03;27.10;;;8.20;99.90;;;;;;5110816;28;20028;-62
2022/04/16 01:52:24;;;;;;;68.30;24.85;;;8.20;99.90;;;;;;5109878;28;20055;-62
2022/04/16 01:54:50;;;;;;;79.53;29.05;;;8.20;99.90;;;;;;5111427;28;20067;-63
2022/04/16 01:57:18;;;;;;;76.50;27.15;;;8.20;99.90;;;;;;5109812;28;20689;-64
2022/04/16 01:59:48;;;;;;;74.05;26.25;;;8.20;99.90;;;;;;5111038;28;20077;-64
2022/04/16 02:02:15;;;;;;;84.22;27.98;;;8.10;99.90;;;;;;5110520;28;20557;-64
2022/04/16 02:04:40;;;;;;;74.75;25.88;;;8.10;99.90;;;;;;5110755;28;20049;-64
2022/04/16 02:07:06;;;;;;;84.40;28.50;;;8.10;99.90;;;;;;5110863;28;20031;-62
2022/04/16 02:09:33;;;;;;;79.97;28.65;;;8.10;99.90;;;;;;5110607;28;20089;-62
2022/04/16 02:11:58;;;;;;;76.97;27.38;;;8.10;99.90;;;;;;5111155;28;20118;-64
2022/04/16 02:14:24;;;;;;;96.53;32.17;;;8.10;99.90;;;;;;5108707;28;20277;-63
2022/04/16 02:16:50;;;;;;;88.13;30.05;;;8.10;99.90;;;;;;5103692;28;20488;-64
2022/04/16 02:19:16;;;;;;;84.82;30.20;;;8.10;99.90;;;;;;5110472;28;20024;-64
2022/04/16 02:21:43;;;;;;;87.60;29.17;;;8.10;99.90;;;;;;5110670;28;20048;-63
2022/04/16 02:24:08;;;;;;;82.88;27.52;;;8.10;99.90;;;;;;5111017;28;20039;-64
2022/04/16 02:26:34;;;;;;;111.75;33.45;;;8.00;99.90;;;;;;5104798;28;20077;-62
2022/04/16 02:29:00;;;;;;;106.72;33.25;;;8.00;99.90;;;;;;5113250;28;20027;-62
2022/04/16 02:31:26;;;;;;;112.82;33.88;;;7.90;99.90;;;;;;5110941;28;20515;-63
2022/04/16 02:33:55;;;;;;;133.48;35.38;;;7.90;99.90;;;;;;5114644;28;20152;-63
2022/04/16 02:36:23;;;;;;;136.75;36.40;;;7.90;99.90;;;;;;5114405;28;20094;-64
2022/04/16 02:38:49;;;;;;;108.18;32.22;;;7.90;99.90;;;;;;5111548;28;20031;-64
2022/04/16 02:41:15;;;;;;;110.72;33.13;;;7.90;99.90;;;;;;5114311;28;20536;-64
2022/04/16 02:43:40;;;;;;;100.75;31.63;;;7.90;99.90;;;;;;5114423;28;20051;-64
2022/04/16 02:48:50;;;;;;;132.15;33.17;;;7.70;99.90;;;;;;5113716;28;20126;-63
2022/04/16 02:51:16;;;;;;;119.03;34.15;;;7.70;99.90;;;;;;5112561;28;20114;-64
2022/04/16 02:53:41;;;;;;;110.45;32.75;;;7.60;99.90;;;;;;5114638;28;20028;-62
2022/04/16 02:56:07;;;;;;;140.05;37.10;;;7.60;99.90;;;;;;5113141;28;20471;-63
2022/04/16 02:58:33;;;;;;;115.28;32.88;;;7.60;99.90;;;;;;5103467;28;20015;-62
2022/04/16 03:00:58;;;;;;;123.00;36.22;;;7.60;99.90;;;;;;5112678;28;20024;-62
2022/04/16 03:03:24;;;;;;;121.68;34.63;;;7.60;99.90;;;;;;5114359;28;20490;-62
2022/04/16 03:05:50;;;;;;;133.45;37.03;;;7.60;99.90;;;;;;5114061;28;20060;-62
2022/04/16 03:08:15;;;;;;;141.13;38.03;;;7.60;99.90;;;;;;5113572;28;20418;-63
2022/04/16 03:10:41;;;;;;;158.95;41.17;;;7.60;99.90;;;;;;5108474;28;20027;-62
2022/04/16 03:13:07;;;;;;;155.00;41.35;;;7.60;99.90;;;;;;5107415;28;20059;-63
2022/04/16 03:18:18;;;;;;;183.13;42.78;;;7.60;99.90;;;;;;5110083;28;20116;-62
2022/04/16 03:20:44;;;;;;;203.55;47.15;;;7.60;99.90;;;;;;5113077;28;20080;-62
2022/04/16 03:23:10;;;;;;;202.13;45.45;;;7.60;99.90;;;;;;5114189;28;20142;-62
2022/04/16 03:25:40;;;;;;;177.43;42.95;;;7.70;99.90;;;;;;5112933;28;20095;-63
2022/04/16 03:28:06;;;;;;;205.90;48.78;;;7.60;99.90;;;;;;5113466;28;20053;-63
2022/04/16 03:30:32;;;;;;;185.45;45.53;;;7.70;99.90;;;;;;5113552;28;20031;-62
2022/04/16 03:32:59;;;;;;;184.82;43.95;;;7.60;99.90;;;;;;5095903;28;20020;-63
2022/04/16 03:35:24;;;;;;;185.25;46.60;;;7.60;99.90;;;;;;5107243;28;20038;-63
2022/04/16 03:37:50;;;;;;;216.05;49.28;;;7.60;99.90;;;;;;5112861;28;20453;-62
2022/04/16 03:40:16;;;;;;;184.35;45.10;;;7.60;99.90;;;;;;5113538;28;20049;-62
2022/04/16 03:42:53;;;;;;;201.32;46.65;;;7.60;99.90;;;;;;5113157;28;20093;-63
2022/04/16 03:45:29;;;;;;;180.45;46.63;;;7.50;99.90;;;;;;5105465;28;20016;-63
2022/04/16 03:47:56;;;;;;;218.05;48.75;;;7.50;99.90;;;;;;5108518;28;20041;-63
2022/04/16 03:50:24;;;;;;;193.18;45.88;;;7.50;99.90;;;;;;5111864;28;20384;-62
2022/04/16 03:52:51;;;;;;;174.43;45.85;;;7.60;99.90;;;;;;5112773;27;20471;-64
2022/04/16 04:00:53;;;;;;;218.68;51.20;;;7.60;99.90;;;;;;5112690;28;20096;-64
2022/04/16 04:03:20;;;;;;;215.07;52.10;;;7.70;99.90;;;;;;5113461;28;20076;-62
2022/04/16 04:05:46;;;;;;;202.20;49.00;;;7.70;99.90;;;;;;5112868;28;20088;-62
2022/04/16 04:08:12;;;;;;;235.23;54.55;;;7.70;99.90;;;;;;5102833;28;20078;-63
2022/04/16 04:10:38;;;;;;;159.50;43.65;;;7.60;99.90;;;;;;5112791;28;20483;-62
2022/04/16 04:13:04;;;;;;;121.75;38.55;;;7.60;99.90;;;;;;5112632;28;20467;-62
2022/04/16 04:15:30;;;;;;;139.52;37.65;;;7.60;99.90;;;;;;5112716;28;20061;-62
2022/04/16 04:17:58;;;;;;;157.60;41.10;;;7.40;99.90;;;;;;5111109;28;20032;-63
2022/04/16 04:20:24;;;;;;;168.48;41.15;;;7.40;99.90;;;;;;5111143;28;20056;-62
2022/04/16 04:22:50;;;;;;;137.48;41.38;;;7.30;99.90;;;;;;5111689;28;20470;-62
2022/04/16 04:25:15;;;;;;;183.23;46.58;;;7.20;99.90;;;;;;5112189;28;20069;-62
2022/04/16 04:27:41;;;;;;;215.05;49.03;;;7.20;99.90;;;;;;5112250;28;20437;-62
2022/04/16 04:30:07;;;;;;;266.60;54.80;;;7.20;99.90;;;;;;5111910;28;20038;-63
2022/04/16 04:32:33;;;;;;;245.85;54.83;;;7.30;99.90;;;;;;5121028;27;20489;-63
2022/04/16 04:34:59;;;;;;;224.40;48.75;;;7.30;99.90;;;;;;5111820;27;20023;-62
2022/04/16 04:37:24;;;;;;;232.30;50.67;;;7.40;99.90;;;;;;5112124;28;20103;-62
2022/04/16 04:39:50;;;;;;;183.65;46.33;;;7.40;99.90;;;;;;5110392;28;20035;-62
2022/04/16 04:42:29;;;;;;;261.42;52.58;;;7.40;99.90;;;;;;5110689;28;20028;-62
2022/04/16 04:44:56;;;;;;;242.73;51.17;;;7.40;99.90;;;;;;5111452;28;20020;-62
2022/04/16 04:47:21;;;;;;;242.25;51.78;;;7.50;99.90;;;;;;5111426;28;20023;-63
2022/04/16 04:49:48;;;;;;;238.60;53.67;;;7.40;99.90;;;;;;5110396;28;20040;-63
2022/04/16 04:52:27;;;;;;;221.63;48.60;;;7.40;99.90;;;;;;5111778;28;20037;-62
2022/04/16 04:54:57;;;;;;;181.85;43.60;;;7.50;99.90;;;;;;5110759;28;20050;-62
2022/04/16 04:57:23;;;;;;;213.80;46.58;;;7.50;99.90;;;;;;5111691;28;20031;-62
2022/04/16 04:59:48;;;;;;;196.55;44.38;;;7.40;99.90;;;;;;5110223;28;20168;-63
2022/04/16 05:02:15;;;;;;;172.52;42.47;;;7.40;99.90;;;;;;5111119;28;20492;-62
2022/04/16 05:04:41;;;;;;;185.82;43.50;;;7.30;99.90;;;;;;5098315;28;20036;-62
2022/04/16 05:07:07;;;;;;;228.23;46.40;;;7.30;99.90;;;;;;5107241;28;20028;-63
2022/04/16 05:09:33;;;;;;;168.00;41.40;;;7.30;99.90;;;;;;5111864;28;20165;-63
2022/04/16 05:11:58;;;;;;;170.82;41.65;;;7.30;99.90;;;;;;5110390;28;20024;-61
2022/04/16 05:14:24;;;;;;;223.93;45.85;;;7.20;99.90;;;;;;5110283;28;20031;-62
2022/04/16 05:16:50;;;;;;;238.25;48.75;;;7.30;99.90;;;;;;5110699;28;20039;-62
2022/04/16 05:19:16;;;;;;;207.07;44.70;;;7.30;99.90;;;;;;5109823;28;20117;-62
2022/04/16 05:21:43;;;;;;;161.98;43.90;;;7.40;99.90;;;;;;5111574;28;20079;-62
2022/04/16 05:24:09;;;;;;;230.73;49.58;;;7.40;99.90;;;;;;5110578;28;20060;-62
2022/04/16 05:26:35;;;;;;;166.38;42.47;;;7.40;99.90;;;;;;5110500;28;20069;-63
2022/04/16 05:29:02;;;;;;;148.27;39.08;;;7.40;99.90;;;;;;5107809;28;20429;-63
2022/04/16 05:31:29;;;;;;;185.13;44.25;;;7.40;99.90;;;;;;5111391;28;20035;-62
2022/04/16 05:36:40;;;;;;;168.65;42.20;;;7.50;99.90;;;;;;5110071;28;20042;-63
2022/04/16 05:39:05;;;;;;;168.18;44.05;;;7.50;99.90;;;;;;5111085;28;20027;-62
2022/04/16 05:41:34;;;;;;;162.32;41.95;;;7.50;99.90;;;;;;5108863;28;20028;-62
2022/04/16 05:44:01;;;;;;;159.20;40.20;;;7.60;99.90;;;;;;5101388;28;20035;-62
2022/04/16 05:46:27;;;;;;;133.98;38.60;;;7.60;99.90;;;;;;5111777;28;20463;-62
2022/04/16 05:48:52;;;;;;;132.20;38.50;;;7.70;99.90;;;;;;5110383;28;20042;-62
2022/04/16 05:51:20;;;;;;;134.77;37.08;;;7.70;99.90;;;;;;5110737;28;20102;-62
2022/04/16 05:53:49;;;;;;;133.05;38.28;;;7.80;99.90;;;;;;5111115;28;20023;-62
2022/04/16 05:56:16;;;;;;;139.00;37.03;;;7.80;99.90;;;;;;5109502;28;20039;-61
2022/04/16 05:58:42;;;;;;;116.18;34.85;;;7.90;99.90;;;;;;5111977;28;20387;-61
2022/04/16 06:01:09;;;;;;;114.07;35.22;;;7.90;99.90;;;;;;5111532;28;20044;-62
2022/04/16 06:03:36;;;;;;;125.53;36.30;;;7.90;99.90;;;;;;5111648;28;20020;-61
2022/04/16 06:06:03;;;;;;;144.48;39.00;;;7.90;99.90;;;;;;5111083;28;20364;-62
2022/04/16 06:08:29;;;;;;;160.63;42.50;;;7.90;99.90;;;;;;5112986;28;20108;-61
2022/04/16 06:10:54;;;;;;;146.32;38.33;;;8.00;99.90;;;;;;5113290;28;20095;-62
2022/04/16 06:13:20;;;;;;;136.70;38.42;;;8.00;99.90;;;;;;5114166;28;20024;-63
2022/04/16 06:15:46;;;;;;;124.55;36.85;;;8.10;99.90;;;;;;5114709;28;20114;-61
2022/04/16 06:18:11;;;;;;;139.00;39.65;;;8.20;99.90;;;;;;5113906;28;20019;-61
2022/04/16 06:20:38;;;;;;;137.25;37.45;;;8.30;99.90;;;;;;5114011;28;20034;-61
2022/04/16 06:23:04;;;;;;;116.30;36.30;;;8.40;99.90;;;;;;5114133;28;20059;-62
2022/04/16 06:25:30;;;;;;;105.30;36.20;;;8.50;99.90;;;;;;5114183;28;20047;-61
2022/04/16 06:27:56;;;;;;;98.07;34.65;;;8.60;99.90;;;;;;5114219;28;20118;-62
2022/04/16 06:30:22;;;;;;;103.35;36.08;;;8.70;99.90;;;;;;5113906;28;20035;-61
2022/04/16 06:32:48;;;;;;;94.28;33.75;;;8.80;99.90;;;;;;5114235;28;20031;-62
2022/04/16 06:35:13;;;;;;;90.65;33.15;;;8.90;99.90;;;;;;5114028;28;20067;-63
2022/04/16 06:37:41;;;;;;;97.13;32.78;;;9.00;99.90;;;;;;5113807;28;20030;-63
2022/04/16 06:40:08;;;;;;;77.38;31.65;;;9.10;99.90;;;;;;5110727;28;20032;-62
2022/04/16 06:42:34;;;;;;;94.90;33.17;;;9.20;99.90;;;;;;5098522;28;20019;-62
2022/04/16 06:45:00;;;;;;;78.65;32.97;;;9.20;99.90;;;;;;5108460;28;20019;-63
2022/04/16 06:47:29;;;;;;;90.10;35.13;;;9.30;99.90;;;;;;5114665;28;20373;-62
2022/04/16 06:49:55;;;;;;;84.82;31.73;;;9.30;99.90;;;;;;5114473;28;20028;-62
2022/04/16 06:52:20;;;;;;;80.03;34.05;;;9.40;99.90;;;;;;5113494;28;20019;-62
2022/04/16 06:54:46;;;;;;;80.00;31.58;;;9.60;99.90;;;;;;5104497;28;20344;-62
2022/04/16 06:57:13;;;;;;;72.25;30.95;;;9.70;99.90;;;;;;5105123;28;20043;-63
2022/04/16 06:59:39;;;;;;;76.65;32.47;;;9.80;99.90;;;;;;5112838;27;20025;-63
2022/04/16 07:02:09;;;;;;;66.13;30.52;;;9.90;99.90;;;;;;5113198;28;20027;-62
2022/04/16 07:04:34;;;;;;;71.15;30.90;;;10.00;99.90;;;;;;5102844;28;20055;-62
2022/04/16 07:07:00;;;;;;;72.10;32.17;;;10.10;99.90;;;;;;5113851;28;20086;-62
2022/04/16 07:09:26;;;;;;;66.55;30.42;;;10.20;99.90;;;;;;5104118;28;20065;-62
2022/04/16 07:11:52;;;;;;;68.85;32.15;;;10.30;99.90;;;;;;5105306;28;20503;-63
2022/04/16 07:14:17;;;;;;;64.95;32.10;;;10.40;99.90;;;;;;5103705;28;20024;-62
2022/04/16 07:16:43;;;;;;;61.95;31.27;;;10.50;99.90;;;;;;5104334;28;20024;-62
2022/04/16 07:19:09;;;;;;;68.65;32.78;;;10.70;99.90;;;;;;5112903;28;20031;-62
2022/04/16 07:21:35;;;;;;;64.45;32.05;;;10.70;99.90;;;;;;5110937;28;20074;-62
2022/04/16 07:24:01;;;;;;;70.25;33.83;;;10.80;99.90;;;;;;5110917;27;20375;-61
2022/04/16 07:26:27;;;;;;;73.63;34.58;;;11.00;99.90;;;;;;5111532;28;20027;-62
2022/04/16 07:28:52;;;;;;;71.25;36.30;;;11.10;99.90;;;;;;5114032;28;20019;-62
2022/04/16 07:31:18;;;;;;;70.15;35.28;;;11.20;99.90;;;;;;5109685;28;20028;-62
2022/04/16 07:33:44;;;;;;;73.38;37.72;;;11.40;99.90;;;;;;5109820;28;20038;-62
2022/04/16 07:36:10;;;;;;;71.50;36.05;;;11.40;99.90;;;;;;5107189;28;20031;-62
2022/04/16 07:38:35;;;;;;;69.93;37.53;;;11.60;99.90;;;;;;5112977;28;20039;-62
2022/04/16 07:41:05;;;;;;;71.72;37.15;;;11.70;99.90;;;;;;5109966;28;20024;-62
2022/04/16 07:43:30;;;;;;;74.28;38.65;;;11.80;99.90;;;;;;5095046;28;20560;-62
2022/04/16 07:45:56;;;;;;;76.10;38.25;;;11.90;99.90;;;;;;5092255;28;20032;-62
2022/04/16 07:48:22;;;;;;;69.60;37.88;;;12.00;99.90;;;;;;5093018;28;20458;-62
2022/04/16 07:50:48;;;;;;;66.03;35.78;;;12.10;99.90;;;;;;5107026;28;20027;-62
2022/04/16 07:53:14;;;;;;;67.85;37.70;;;12.20;99.90;;;;;;5105912;28;20024;-62
2022/04/16 07:55:39;;;;;;;71.40;37.95;;;12.30;99.90;;;;;;5108151;28;20372;-62
2022/04/16 07:58:05;;;;;;;68.72;36.58;;;12.30;99.90;;;;;;5108971;28;20035;-62
2022/04/16 08:00:31;;;;;;;72.68;37.60;;;12.40;99.90;;;;;;5107307;28;20102;-63
2022/04/16 08:02:56;;;;;;;68.65;37.45;;;12.50;99.90;;;;;;5099988;28;20111;-62
2022/04/16 08:05:22;;;;;;;63.67;36.75;;;12.70;99.90;;;;;;5096547;28;20016;-62
2022/04/16 08:07:49;;;;;;;65.53;36.38;;;12.90;99.90;;;;;;5100098;28;20020;-63
2022/04/16 08:10:15;;;;;;;66.07;36.95;;;13.00;99.90;;;;;;5109305;28;20114;-63
2022/04/16 08:12:41;;;;;;;65.82;35.58;;;13.00;99.90;;;;;;5098550;28;20030;-63
2022/04/16 08:15:07;;;;;;;57.85;33.63;;;13.10;99.90;;;;;;5108743;28;20098;-63
2022/04/16 08:17:33;;;;;;;62.22;33.78;;;13.20;99.90;;;;;;5097301;28;20064;-62
2022/04/16 08:19:59;;;;;;;61.80;34.35;;;13.30;99.90;;;;;;5103399;28;20028;-62
2022/04/16 08:22:28;;;;;;;67.03;38.70;;;13.30;99.90;;;;;;5112285;28;20051;-63
2022/04/16 08:25:43;;;;;;;65.43;35.75;;;13.50;99.90;;;;;;5112529;28;20020;-63
2022/04/16 08:27:42;;;;;;;60.05;34.45;;;13.70;99.90;;;;;;5111096;28;20027;-63
2022/04/16 08:30:10;;;;;;;58.45;34.60;;;13.80;99.90;;;;;;5111964;28;20031;-63
2022/04/16 08:32:42;;;;;;;61.45;34.40;;;13.90;99.90;;;;;;5096690;28;20032;-64
2022/04/16 08:35:13;;;;;;;56.15;32.13;;;14.00;99.90;;;;;;5110923;28;20172;-64
2022/04/16 08:37:40;;;;;;;53.15;31.30;;;14.10;99.90;;;;;;5108950;28;20024;-64
2022/04/16 08:40:07;;;;;;;49.60;31.92;;;14.20;99.90;;;;;;5111655;28;20031;-64
2022/04/16 08:42:34;;;;;;;60.17;32.47;;;14.30;99.90;;;;;;5112568;28;20490;-63
2022/04/16 08:45:02;;;;;;;54.92;32.22;;;14.40;99.90;;;;;;5112423;28;20088;-63
2022/04/16 08:47:28;;;;;;;;;;;14.50;99.90;;;;;;5112616;28;20030;-64
2022/04/16 08:49:53;;;;;;;53.03;31.23;;;14.40;99.90;;;;;;5111396;28;19990;-63
2022/04/16 08:52:22;;;;;;;50.30;31.35;;;14.60;99.90;;;;;;5111941;28;20038;-63
2022/04/16 08:54:48;;;;;;;49.88;30.75;;;14.70;99.90;;;;;;5110958;28;20494;-62
2022/04/16 08:57:13;;;;;;;54.25;32.60;;;14.80;99.90;;;;;;5111938;28;20028;-63
2022/04/16 08:59:47;;;;;;;53.83;31.10;;;14.90;99.90;;;;;;5111799;27;20035;-64
2022/04/16 09:02:13;;;;;;;50.60;30.95;;;14.90;99.90;;;;;;5100201;28;20023;-63
2022/04/16 09:04:39;;;;;;;52.33;30.50;;;15.10;99.90;;;;;;5098062;28;20074;-63
2022/04/16 09:07:05;;;;;;;47.42;29.48;;;15.30;99.90;;;;;;5096430;28;20020;-63
2022/04/16 09:09:30;;;;;;;48.50;27.75;;;15.30;99.90;;;;;;5110437;28;20059;-63
2022/04/16 09:11:56;;;;;;;39.55;26.20;;;15.50;99.90;;;;;;5111214;28;20589;-64
2022/04/16 09:14:42;;;;;;;47.78;28.10;;;15.40;99.80;;;;;;5103514;28;20361;-63
2022/04/16 09:17:09;;;;;;;43.42;26.17;;;15.70;99.90;;;;;;5111799;28;20463;-63
2022/04/16 09:19:34;;;;;;;40.72;25.02;;;16.00;99.90;;;;;;5110224;28;20028;-62
2022/04/16 09:22:00;;;;;;;40.95;24.85;;;16.40;99.40;;;;;;5111910;28;20404;-62
2022/04/16 09:24:26;;;;;;;38.80;25.30;;;16.60;98.10;;;;;;5111770;28;20506;-63
2022/04/16 09:26:51;;;;;;;37.83;25.25;;;16.70;97.10;;;;;;5111407;28;20106;-62
2022/04/16 09:29:18;;;;;;;40.17;25.35;;;16.70;96.80;;;;;;5112204;28;20089;-62
2022/04/16 09:31:49;;;;;;;37.90;24.17;;;16.50;96.30;;;;;;5113012;28;20390;-61
2022/04/16 09:34:19;;;;;;;36.70;24.50;;;16.60;96.20;;;;;;5111557;28;20069;-63
2022/04/16 09:36:46;;;;;;;31.70;22.42;;;17.00;98.00;;;;;;5112878;28;20474;-62
2022/04/16 09:39:12;;;;;;;33.23;22.67;;;17.40;95.00;;;;;;5116996;28;20102;-62
2022/04/16 09:41:40;;;;;;;37.03;21.17;;;17.40;95.20;;;;;;5116708;28;20272;-61
2022/04/16 09:44:27;;;;;;;31.00;21.75;;;17.70;94.90;;;;;;5116874;28;20050;-62
2022/04/16 09:46:55;;;;;;;29.85;19.30;;;18.00;93.40;;;;;;5116495;27;20088;-62
2022/04/16 09:49:21;;;;;;;23.50;17.73;;;18.40;92.70;;;;;;5108841;28;20036;-62
2022/04/16 09:51:48;;;;;;;26.53;17.67;;;18.40;91.80;;;;;;5113347;28;20039;-62
2022/04/16 09:54:15;;;;;;;22.75;16.02;;;18.50;92.10;;;;;;5115411;28;20023;-62
2022/04/16 09:56:49;;;;;;;26.65;17.17;;;18.90;90.90;;;;;;5116720;28;20028;-62
2022/04/16 09:59:16;;;;;;;23.85;17.30;;;19.00;90.40;;;;;;5116811;28;20409;-61
2022/04/16 10:01:49;;;;;;;23.57;18.00;;;19.20;86.00;;;;;;5115401;28;20365;-63
2022/04/16 10:04:19;;;;;;;23.95;17.88;;;19.70;90.00;;;;;;5116414;28;20372;-62
2022/04/16 10:06:46;;;;;;;19.73;15.23;;;20.20;85.90;;;;;;5116786;28;20077;-62
2022/04/16 10:09:22;;;;;;;21.42;15.00;;;20.10;82.20;;;;;;5115303;28;20514;-62
2022/04/16 10:15:00;;;;;;;22.95;15.73;;;20.60;76.50;;;;;;5115144;28;20108;-60
2022/04/16 10:17:35;;;;;;;20.70;15.18;;;20.60;76.30;;;;;;5116199;28;20042;-62
2022/04/16 10:20:20;;;;;;;21.17;15.68;;;20.70;76.80;;;;;;5116436;28;20019;-60
2022/04/16 10:22:56;;;;;;;17.52;14.05;;;20.90;74.00;;;;;;5109855;28;20052;-61
2022/04/16 10:25:35;;;;;;;17.05;14.30;;;21.60;75.90;;;;;;5111131;28;20045;-62
2022/04/16 10:28:16;;;;;;;17.15;14.05;;;22.00;69.40;;;;;;5112972;28;20024;-61
2022/04/16 10:30:50;;;;;;;17.00;13.07;;;21.50;71.20;;;;;;5100953;28;20024;-61
2022/04/16 10:33:22;;;;;;;15.68;12.48;;;21.90;69.50;;;;;;5114397;28;20449;-61
2022/04/16 10:35:49;;;;;;;17.08;12.13;;;21.80;67.70;;;;;;5115629;28;20382;-61
2022/04/16 10:38:36;;;;;;;20.48;12.63;;;22.10;67.20;;;;;;5099408;28;20396;-62
2022/04/16 10:41:09;;;;;;;14.30;10.88;;;22.40;64.70;;;;;;5107806;28;20383;-61
2022/04/16 10:43:35;;;;;;;16.10;12.85;;;22.50;60.10;;;;;;5109077;28;20027;-61
2022/04/16 10:46:06;;;;;;;15.48;11.38;;;21.40;60.40;;;;;;5099117;28;20019;-61
2022/04/16 10:48:33;;;;;;;16.23;12.15;;;21.20;60.90;;;;;;5114777;28;20380;-61
2022/04/16 10:51:00;;;;;;;21.25;15.57;;;21.50;63.10;;;;;;5107417;28;20091;-61
2022/04/16 10:53:28;;;;;;;22.88;17.20;;;21.70;71.20;;;;;;5098306;28;20354;-61
2022/04/16 10:55:54;;;;;;;25.33;18.90;;;21.40;66.30;;;;;;5095402;28;20035;-60
2022/04/16 10:58:27;;;;;;;24.73;17.80;;;21.00;72.40;;;;;;5115024;28;20032;-61
2022/04/16 11:01:04;;;;;;;24.52;17.08;;;20.90;70.40;;;;;;5112667;28;20513;-60
2022/04/16 11:03:30;;;;;;;22.42;16.73;;;20.80;69.00;;;;;;5116007;28;20383;-61
2022/04/16 11:06:09;;;;;;;25.05;17.08;;;20.70;74.50;;;;;;5115732;28;20061;-60
2022/04/16 11:08:35;;;;;;;25.80;17.95;;;20.50;71.60;;;;;;5115307;28;20518;-61
2022/04/16 11:12:14;;;;;;;26.27;17.85;;;19.90;72.20;;;;;;5082414;27;1621570;-62
2022/04/16 11:14:40;;;;;;;23.83;17.05;;;19.90;78.10;;;;;;5124731;27;20024;-62
2022/04/16 11:17:05;;;;;;;26.40;16.92;;;19.90;74.40;;;;;;5116993;28;20032;-61
2022/04/16 11:19:31;;;;;;;24.00;16.30;;;19.80;76.10;;;;;;5121500;28;20023;-61
2022/04/16 11:21:57;;;;;;;27.20;18.55;;;19.90;77.80;;;;;;5126096;28;20383;-61
2022/04/16 11:24:23;;;;;;;28.13;18.50;;;19.90;78.80;;;;;;5113613;28;20080;-61
2022/04/16 11:35:06;;;;;;;32.63;20.73;;;19.00;82.90;;;;;;5125205;28;20026;-61
2022/04/16 11:37:33;;;;;;;34.83;22.58;;;19.20;82.40;;;;;;5121992;27;20035;-61
2022/04/16 11:40:03;;;;;;;29.02;18.88;;;18.90;83.30;;;;;;5128865;28;20516;-61
2022/04/16 11:42:30;;;;;;;34.95;22.35;;;18.70;84.00;;;;;;5129259;27;20019;-61
2022/04/16 11:44:56;;;;;;;35.25;22.42;;;18.90;84.00;;;;;;5115438;27;20024;-60
2022/04/16 11:47:23;;;;;;;32.42;21.15;;;18.60;81.10;;;;;;5108614;28;20046;-60
2022/04/16 11:49:52;;;;;;;35.13;21.05;;;18.90;83.90;;;;;;5124566;28;20011;-62
2022/04/16 11:52:29;;;;;;;32.78;21.25;;;19.00;81.70;;;;;;5113822;27;20034;-61
2022/04/16 11:55:04;;;;;;;;;;;19.40;81.30;;;;;;5129654;27;20023;-62
2022/04/16 11:57:29;;;;;;;29.50;20.20;;;19.30;81.90;;;;;;5129295;28;19943;-62
2022/04/16 11:59:57;;;;;;;27.65;19.08;;;19.20;78.20;;;;;;5128254;28;20430;-62
2022/04/16 12:02:29;;;;;;;27.70;18.15;;;19.40;75.90;;;;;;5128383;27;20115;-63
2022/04/16 12:05:05;;;;;;;26.42;19.40;;;19.70;76.40;;;;;;5126983;28;20020;-62
2022/04/16 12:07:32;;;;;;;27.85;16.13;;;19.80;78.10;;;;;;5128775;27;20475;-62
2022/04/16 12:10:01;;;;;;;25.92;17.88;;;20.00;77.30;;;;;;5127334;28;20023;-62
2022/04/16 12:12:28;;;;;;;26.83;17.88;;;20.00;76.70;;;;;;5125328;27;20450;-62
2022/04/16 12:14:54;;;;;;;24.00;16.58;;;20.30;74.10;;;;;;5126987;28;20471;-62
2022/04/16 12:17:31;;;;;;;25.70;17.70;;;20.60;73.20;;;;;;5127212;27;20051;-63
2022/04/16 12:20:08;;;;;;;23.95;15.18;;;21.10;70.30;;;;;;5126359;28;20024;-62
2022/04/16 12:22:46;;;;;;;23.05;15.98;;;21.60;65.40;;;;;;5116666;27;20035;-62
2022/04/16 12:25:15;;;;;;;20.65;14.65;;;22.40;64.40;;;;;;5109484;28;20023;-62
2022/04/16 12:27:50;;;;;;;20.83;13.90;;;23.20;66.50;;;;;;5114055;28;20016;-62
2022/04/16 12:30:28;;;;;;;19.80;15.13;;;23.80;61.90;;;;;;5114462;28;20686;-60
2022/04/16 12:33:02;;;;;;;23.63;16.40;;;23.90;54.60;;;;;;5111111;28;20539;-60
2022/04/16 12:35:29;;;;;;;24.20;16.85;;;23.50;55.30;;;;;;5104243;28;20106;-60
2022/04/16 12:37:55;;;;;;;;;;;22.80;54.60;;;;;;5110657;28;20365;-61
2022/04/16 12:40:22;;;;;;;20.33;14.37;;;23.40;56.40;;;;;;5098071;28;19915;-62
2022/04/16 12:42:49;;;;;;;21.05;15.55;;;24.20;55.60;;;;;;5106365;28;20502;-60
2022/04/16 12:45:15;;;;;;;18.90;14.80;;;23.40;55.10;;;;;;5114431;28;20039;-61
2022/04/16 12:47:41;;;;;;;21.15;15.02;;;23.20;52.00;;;;;;5107491;28;20023;-61
2022/04/16 12:50:08;;;;;;;20.35;14.43;;;24.10;56.20;;;;;;5106380;28;20055;-60
2022/04/16 12:52:34;;;;;;;19.48;14.15;;;24.40;54.60;;;;;;5098007;28;20028;-62
2022/04/16 12:55:00;;;;;;;18.65;12.75;;;25.00;51.90;;;;;;5097235;28;20051;-60
2022/04/16 12:57:26;;;;;;;18.67;13.38;;;24.90;52.50;;;;;;5106665;28;20114;-61
2022/04/16 12:59:52;;;;;;;15.18;12.27;;;23.60;51.00;;;;;;5106307;28;20111;-60